Time;durP1;ratioP1;P1;durP2;ratioP2;P2;SDS_P1;SDS_P2;PMS_P1;PMS_P2;Temp;Humidity;BMP_temperature;BMP_pressure;BME280_temperature;BME280_humidity;BME280_pressure;Samples;Min_cycle;Max_cycle;Signal;HPM_P1;HPM_P2
2022/03/23 00:00:18;;;;;;;12.60;5.97;;;;;;;-5.12;59.58;101821.09;10255310;28;20177;-79
2022/03/23 00:05:19;;;;;;;11.57;6.13;;;;;;;-4.51;59.18;101929.59;10254729;29;20046;-80
2022/03/23 00:10:20;;;;;;;10.05;5.75;;;;;;;-4.52;58.96;101954.63;10252341;28;20050;-79
2022/03/23 00:15:21;;;;;;;12.10;5.88;;;;;;;-4.49;59.33;101959.75;10255117;29;20084;-79
2022/03/23 00:20:22;;;;;;;11.27;5.55;;;;;;;-5.02;59.32;101890.88;10254041;28;20039;-79
2022/03/23 00:25:23;;;;;;;13.98;5.97;;;;;;;-4.85;59.67;101945.81;10254659;29;20043;-79
2022/03/23 00:30:24;;;;;;;15.40;7.00;;;;;;;-5.20;60.25;101898.13;10253993;29;20511;-79
2022/03/23 00:35:25;;;;;;;13.73;6.97;;;;;;;-5.11;60.77;101923.00;10253060;29;20118;-79
2022/03/23 00:40:28;;;;;;;11.90;6.35;;;;;;;-5.83;61.27;101781.94;10251914;29;20039;-79
2022/03/23 00:45:29;;;;;;;15.38;6.70;;;;;;;-5.56;61.26;101830.59;10253007;29;20523;-79
2022/03/23 00:50:30;;;;;;;12.45;6.20;;;;;;;-5.82;60.03;101797.44;10265893;28;20043;-79
2022/03/23 00:55:31;;;;;;;13.45;5.95;;;;;;;-5.04;60.60;101953.09;10291977;28;20077;-78
2022/03/23 01:00:32;;;;;;;9.82;5.90;;;;;;;-5.40;61.07;101920.97;10251639;29;20039;-79
2022/03/23 01:05:33;;;;;;;13.57;5.85;;;;;;;-5.82;61.25;101846.59;10252692;29;20058;-78
2022/03/23 01:10:34;;;;;;;13.52;6.75;;;;;;;-5.22;61.58;101949.13;10251867;29;20045;-78
2022/03/23 01:15:35;;;;;;;13.25;6.60;;;;;;;-5.20;61.89;101964.66;10252743;28;20039;-78
2022/03/23 01:20:36;;;;;;;14.18;6.35;;;;;;;-6.20;61.71;101774.84;10281613;28;20043;-77
2022/03/23 01:25:37;;;;;;;17.52;6.22;;;;;;;-5.31;61.53;101949.28;10291284;28;20050;-78
2022/03/23 01:30:38;;;;;;;12.02;6.13;;;;;;;-5.43;62.10;101937.41;10290679;28;20042;-78
2022/03/23 01:35:39;;;;;;;13.77;6.43;;;;;;;-5.31;62.86;101954.47;10290093;28;20070;-77
2022/03/23 01:40:40;;;;;;;14.32;6.57;;;;;;;-5.45;62.24;101933.13;10291469;28;20046;-77
2022/03/23 01:45:41;;;;;;;14.23;6.90;;;;;;;-5.51;62.89;101931.50;10290999;28;20061;-77
2022/03/23 01:50:42;;;;;;;16.60;6.47;;;;;;;-5.80;64.18;101912.13;10290945;28;20043;-77
2022/03/23 01:55:43;;;;;;;15.40;8.07;;;;;;;-5.56;65.62;101947.13;10289561;28;20446;-77
2022/03/23 02:00:44;;;;;;;13.38;7.00;;;;;;;-6.63;65.08;101754.88;10291901;28;20046;-78
2022/03/23 02:05:45;;;;;;;12.90;6.72;;;;;;;-6.34;63.53;101813.00;10291807;28;20047;-77
2022/03/23 02:10:46;;;;;;;25.23;7.25;;;;;;;-5.76;64.18;101944.84;10290363;28;20042;-77
2022/03/23 02:15:47;;;;;;;14.73;6.60;;;;;;;-6.13;63.95;101902.34;10290708;28;20054;-77
2022/03/23 02:20:47;;;;;;;12.95;6.97;;;;;;;-6.35;63.04;101865.59;10290787;28;20054;-77
2022/03/23 02:25:52;;;;;;;11.57;5.93;;;;;;;-7.17;64.28;101739.31;10290664;28;20050;-77
2022/03/23 02:30:53;;;;;;;;;;;;;;;-6.00;61.91;101943.53;10291094;28;20046;-74
2022/03/23 02:35:55;;;;;;;13.38;5.55;;;;;;;-6.39;62.69;101928.59;10298210;28;19942;-77
2022/03/23 02:40:56;;;;;;;14.43;5.63;;;;;;;-6.55;63.94;101915.00;10298080;28;20034;-77
2022/03/23 02:45:56;;;;;;;11.60;5.53;;;;;;;-7.76;64.54;101708.22;10291615;28;20066;-78
2022/03/23 02:50:57;;;;;;;20.27;6.82;;;;;;;-7.50;65.45;101727.69;10289682;28;20070;-77
2022/03/23 03:06:42;;;;;;;30.83;16.73;;;;;;;-4.04;68.40;101944.06;10288082;28;20509;-78
2022/03/23 03:11:44;;;;;;;31.95;15.68;;;;;;;-4.00;68.04;101924.13;10289370;28;20125;-77
2022/03/23 03:16:44;;;;;;;30.10;16.30;;;;;;;-3.65;69.15;101954.41;10267104;28;20043;-78
2022/03/23 03:21:46;;;;;;;29.60;17.40;;;;;;;-3.67;69.77;101953.59;10253041;28;20063;-77
2022/03/23 03:26:47;;;;;;;36.38;16.90;;;;;;;-3.72;70.13;101914.75;10255969;28;20050;-78
2022/03/23 03:31:48;;;;;;;31.85;17.80;;;;;;;-3.65;70.41;101892.06;10256265;28;20066;-77
2022/03/23 03:36:49;;;;;;;32.95;17.85;;;;;;;-3.41;73.31;101914.00;10253130;28;20524;-79
2022/03/23 03:41:50;;;;;;;28.52;14.93;;;;;;;-3.08;77.67;101965.94;10326927;28;20057;-78
2022/03/23 03:46:50;;;;;;;37.30;18.65;;;;;;;-3.08;77.53;101969.41;10335286;28;20141;-77
2022/03/23 03:51:52;;;;;;;32.55;18.80;;;;;;;-3.23;77.58;101908.31;10334925;28;20530;-77
2022/03/23 03:56:53;;;;;;;35.58;17.35;;;;;;;-2.73;77.80;101957.19;10295248;28;20046;-77
2022/03/23 04:01:53;;;;;;;40.85;18.67;;;;;;;-3.23;78.79;101821.66;10294930;28;20042;-77
2022/03/23 04:06:54;;;;;;;32.20;18.92;;;;;;;-2.77;80.51;101893.16;10295119;28;20200;-80
2022/03/23 04:11:55;;;;;;;38.47;18.48;;;;;;;-3.35;81.81;101778.72;10294572;28;20070;-77
2022/03/23 04:16:56;;;;;;;37.63;18.08;;;;;;;-2.42;84.15;101943.28;10293390;28;20192;-77
2022/03/23 04:21:57;;;;;;;32.35;18.63;;;;;;;-2.92;82.74;101841.59;10293665;28;20129;-82
2022/03/23 04:26:58;;;;;;;32.15;17.98;;;;;;;-2.19;82.25;101924.38;10294136;28;20587;-79
2022/03/23 04:31:59;;;;;;;36.70;18.35;;;;;;;-2.74;81.60;101765.63;10285659;28;20163;-79
2022/03/23 04:37:00;;;;;;;32.22;19.48;;;;;;;-1.04;81.87;101921.41;10292309;28;20137;-77
2022/03/23 04:42:02;;;;;;;31.33;18.95;;;;;;;-0.31;81.02;101925.63;10275402;28;20082;-78
2022/03/23 04:47:03;;;;;;;24.08;15.27;;;;;;;-0.09;79.00;101930.91;10292274;28;20058;-78
2022/03/23 04:52:04;;;;;;;25.98;16.88;;;;;;;-0.28;78.29;101896.78;10293235;28;20129;-80
2022/03/23 04:57:05;;;;;;;31.48;18.48;;;;;;;-0.73;78.25;101793.25;10291946;28;20133;-77
2022/03/23 05:02:06;;;;;;;33.33;17.65;;;;;;;0.08;77.08;101922.38;10291607;28;20133;-77
2022/03/23 05:07:07;;;;;;;30.98;18.83;;;;;;;0.40;76.55;101941.97;10292321;28;20070;-75
2022/03/23 05:12:08;;;;;;;25.48;16.95;;;;;;;0.72;76.26;101926.69;10292073;28;20047;-82
2022/03/23 05:17:08;;;;;;;25.88;17.05;;;;;;;-0.23;74.79;101719.03;10287912;28;20043;-85
2022/03/23 05:22:09;;;;;;;30.42;18.05;;;;;;;1.07;73.94;101869.34;10291426;28;20065;-83
2022/03/23 05:27:10;;;;;;;28.33;17.33;;;;;;;1.51;72.24;101883.00;10291873;28;20145;-81
2022/03/23 05:32:16;;;;;;;28.48;17.55;;;;;;;1.80;71.77;101858.03;10292418;28;20039;-81
2022/03/23 05:37:17;;;;;;;27.85;14.27;;;;;;;2.17;70.16;101830.00;10290004;28;20038;-80
2022/03/23 05:42:17;;;;;;;22.48;10.73;;;;;;;2.83;63.14;101875.59;10291128;28;20050;-79
2022/03/23 05:47:19;;;;;;;26.90;11.57;;;;;;;2.92;61.38;101851.50;10289956;28;20057;-79
2022/03/23 05:52:20;;;;;;;19.38;10.90;;;;;;;3.56;58.82;101921.56;10290889;28;20073;-78
2022/03/23 05:57:21;;;;;;;24.92;10.52;;;;;;;3.65;58.74;101865.03;10291074;28;20045;-78
2022/03/23 06:02:21;;;;;;;18.58;8.88;;;;;;;4.25;55.92;101919.47;10290725;28;20035;-76
2022/03/23 06:07:22;;;;;;;11.40;6.55;;;;;;;4.03;54.89;101840.94;10294018;28;20046;-77
2022/03/23 06:12:23;;;;;;;14.90;6.97;;;;;;;4.69;53.39;101908.09;10299158;28;20085;-77
2022/03/23 06:17:24;;;;;;;12.15;5.90;;;;;;;4.57;50.45;101868.41;10297348;28;20061;-77
2022/03/23 06:22:25;;;;;;;13.88;5.63;;;;;;;4.22;48.84;101748.66;10299196;28;20070;-77
2022/03/23 06:27:27;;;;;;;15.10;5.30;;;;;;;4.49;48.05;101785.63;10298608;28;20449;-77
2022/03/23 06:32:28;;;;;;;6.60;3.25;;;;;;;4.87;46.44;101772.72;10297692;28;20494;-77
2022/03/23 06:37:30;;;;;;;12.70;2.60;;;;;;;5.51;45.16;101843.38;10298435;28;20086;-78
2022/03/23 06:42:31;;;;;;;8.68;3.13;;;;;;;5.57;43.84;101827.16;10298634;28;20047;-78
2022/03/23 06:47:32;;;;;;;17.70;3.70;;;;;;;6.07;43.28;101873.13;10298023;28;20077;-78
2022/03/23 06:52:33;;;;;;;10.02;3.55;;;;;;;6.06;42.06;101837.13;10298237;28;20039;-77
2022/03/23 06:57:34;;;;;;;7.57;1.65;;;;;;;6.22;40.23;101836.94;10297461;28;20129;-77
2022/03/23 07:02:34;;;;;;;11.57;3.47;;;;;;;6.52;40.57;101852.50;10297723;28;20122;-77
2022/03/23 07:07:37;;;;;;;13.65;4.20;;;;;;;6.69;40.79;101852.19;10296463;28;20035;-77
2022/03/23 07:12:37;;;;;;;13.98;4.65;;;;;;;6.11;39.35;101705.78;10295735;28;20461;-77
2022/03/23 07:17:38;;;;;;;14.73;4.47;;;;;;;7.08;39.40;101831.88;10294836;28;20189;-77
2022/03/23 07:22:39;;;;;;;21.92;5.28;;;;;;;7.11;38.25;101799.09;10296598;28;20061;-77
2022/03/23 07:27:40;;;;;;;10.63;4.18;;;;;;;7.54;38.23;101837.34;10296274;28;20034;-77
2022/03/23 07:32:40;;;;;;;11.88;5.55;;;;;;;7.32;38.38;101816.88;10296796;28;20093;-77
2022/03/23 07:37:41;;;;;;;13.23;5.10;;;;;;;7.63;37.92;101813.81;10295874;28;20406;-77
2022/03/23 07:42:42;;;;;;;8.50;4.90;;;;;;;8.09;37.89;101799.81;10296194;28;20054;-77
2022/03/23 07:47:44;;;;;;;9.05;5.50;;;;;;;7.85;36.83;101762.81;10294955;28;20050;-77
2022/03/23 07:52:45;;;;;;;9.63;5.97;;;;;;;7.27;36.21;101652.53;10294902;28;20109;-77
2022/03/23 07:57:46;;;;;;;13.45;7.15;;;;;;;8.64;36.81;101801.72;10295460;28;20098;-78
2022/03/23 08:02:47;;;;;;;17.65;9.18;;;;;;;7.81;34.93;101652.88;10295804;28;20046;-77
2022/03/23 08:07:48;;;;;;;8.77;5.40;;;;;;;8.20;34.63;101689.50;10293662;28;20038;-76
2022/03/23 08:12:50;;;;;;;18.02;8.93;;;;;;;7.94;34.86;101611.28;10295207;28;20038;-76
2022/03/23 08:17:51;;;;;;;17.27;8.45;;;;;;;9.11;34.89;101754.72;10294611;28;20043;-77
2022/03/23 08:22:52;;;;;;;14.25;10.30;;;;;;;7.72;34.59;101520.41;10293170;28;20398;-78
2022/03/23 08:27:55;;;;;;;17.05;9.88;;;;;;;9.36;34.20;101740.31;10278140;28;20042;-77
2022/03/23 08:32:55;;;;;;;17.05;11.05;;;;;;;9.10;33.52;101733.66;10291561;28;20078;-76
2022/03/23 08:37:57;;;;;;;23.60;10.68;;;;;;;9.38;33.82;101732.22;10292021;28;20138;-76
2022/03/23 08:42:58;;;;;;;18.63;7.78;;;;;;;9.22;33.39;101671.66;10275816;28;20471;-76
2022/03/23 08:48:00;;;;;;;13.73;8.63;;;;;;;9.89;32.78;101718.22;10293351;28;20061;-77
2022/03/23 08:53:03;;;;;;;12.05;7.30;;;;;;;9.91;32.07;101689.75;10292750;28;20113;-76
2022/03/23 08:58:04;;;;;;;12.95;7.65;;;;;;;10.04;32.24;101660.34;10292235;28;20514;-77
2022/03/23 09:03:05;;;;;;;16.13;8.93;;;;;;;9.64;31.58;101594.75;10292646;28;20049;-78
2022/03/23 09:08:08;;;;;;;12.80;6.68;;;;;;;10.18;31.26;101683.03;10288972;28;20134;-75
2022/03/23 09:13:10;;;;;;;11.38;6.93;;;;;;;9.79;31.63;101656.28;10277397;28;20154;-77
2022/03/23 09:18:11;;;;;;;9.48;7.28;;;;;;;10.03;32.42;101664.81;10290396;28;20511;-76
2022/03/23 09:23:12;;;;;;;13.60;7.75;;;;;;;9.84;32.60;101656.72;10291491;28;20159;-76
2022/03/23 09:28:13;;;;;;;16.48;8.23;;;;;;;9.91;31.48;101646.44;10291349;28;20144;-76
2022/03/23 09:33:15;;;;;;;9.23;7.03;;;;;;;9.96;31.30;101620.31;10289246;28;20035;-77
2022/03/23 09:38:15;;;;;;;14.48;10.38;;;;;;;8.91;32.21;101507.22;10271186;28;20047;-76
2022/03/23 09:43:19;;;;;;;19.55;11.60;;;;;;;10.12;31.74;101636.63;10288609;28;20103;-75
2022/03/23 09:48:22;;;;;;;17.23;12.85;;;;;;;10.16;30.42;101645.16;10289844;28;20058;-77
2022/03/23 09:53:24;;;;;;;15.32;11.68;;;;;;;9.97;31.69;101622.84;10289131;28;20133;-75
2022/03/23 09:58:25;;;;;;;15.82;9.45;;;;;;;9.58;30.00;101516.53;10288604;28;20051;-77
2022/03/23 10:04:06;;;;;;;25.17;14.02;;;;;;;9.89;30.81;101606.75;10279788;28;20045;-76
2022/03/23 10:09:25;;;;;;;21.35;13.25;;;;;;;9.91;31.06;101599.50;10265723;28;20063;-76
2022/03/23 10:14:45;;;;;;;20.80;12.40;;;;;;;10.04;30.17;101586.81;10288739;28;20035;-76
2022/03/23 10:19:47;;;;;;;18.02;12.00;;;;;;;9.55;29.92;101527.41;10288606;28;20142;-77
2022/03/23 10:24:49;;;;;;;22.75;12.07;;;;;;;9.02;29.74;101418.00;10289174;28;20047;-77
2022/03/23 10:29:52;;;;;;;15.88;10.40;;;;;;;9.70;29.06;101498.72;10288716;28;20051;-73
2022/03/23 10:34:54;;;;;;;18.33;11.23;;;;;;;10.09;30.29;101564.38;10266417;28;20039;-72
2022/03/23 10:39:57;;;;;;;21.55;12.77;;;;;;;9.76;30.11;101492.03;10276907;28;20047;-72
2022/03/23 10:45:12;;;;;;;17.35;9.93;;;;;;;10.22;30.21;101549.00;10250511;28;20122;-72
2022/03/23 10:50:19;;;;;;;26.33;13.93;;;;;;;9.99;31.14;101533.31;10250700;29;20050;-72
2022/03/23 10:55:21;;;;;;;33.28;16.70;;;;;;;9.97;31.18;101543.22;10255261;28;20039;-71
2022/03/23 11:00:32;;;;;;;21.50;13.98;;;;;;;9.30;31.45;101380.19;10257432;28;20067;-72
2022/03/23 11:05:36;;;;;;;22.02;15.00;;;;;;;9.73;31.37;101484.34;10286801;28;20046;-72
2022/03/23 11:16:10;;;;;;;16.30;11.40;;;;;;;9.81;32.26;101518.97;10295568;28;20078;-72
2022/03/23 11:21:12;;;;;;;29.58;17.60;;;;;;;8.99;33.30;101419.09;10271918;28;20049;-72
2022/03/23 11:26:13;;;;;;;29.40;14.95;;;;;;;9.42;33.10;101473.72;10276044;28;20079;-72
2022/03/23 11:31:16;;;;;;;38.10;17.65;;;;;;;9.25;33.60;101469.06;10292999;28;20074;-75
2022/03/23 11:36:19;;;;;;;26.10;17.67;;;;;;;8.97;33.88;101378.63;10289755;28;20051;-78
2022/03/23 11:41:20;;;;;;;16.85;12.15;;;;;;;9.69;33.66;101497.03;10275865;28;20054;-77
2022/03/23 11:46:23;;;;;;;18.73;9.70;;;;;;;8.72;34.34;101334.03;10263749;28;20055;-78
2022/03/23 11:51:31;;;;;;;20.90;11.50;;;;;;;8.93;34.98;101421.44;10255262;28;20035;-77
2022/03/23 11:56:58;;;;;;;21.13;10.85;;;;;;;9.27;35.49;101488.31;10254133;28;20499;-79
2022/03/23 12:01:59;;;;;;;21.42;10.50;;;;;;;9.28;36.30;101472.28;10254635;29;20046;-77
2022/03/23 12:07:03;;;;;;;29.65;14.73;;;;;;;8.67;36.15;101356.47;10253721;28;20411;-77
2022/03/23 12:12:10;;;;;;;21.65;12.23;;;;;;;9.24;36.16;101439.03;10254249;29;20046;-77
2022/03/23 12:17:16;;;;;;;25.77;13.93;;;;;;;9.43;36.52;101464.81;10254465;29;20054;-77
2022/03/23 12:22:46;;;;;;;27.67;12.00;;;;;;;8.91;36.83;101357.97;10254332;29;20079;-77
2022/03/23 12:27:54;;;;;;;20.92;9.80;;;;;;;9.44;37.34;101460.34;10246664;28;20055;-77
2022/03/23 12:32:58;;;;;;;14.18;7.07;;;;;;;9.43;37.43;101448.06;10254023;29;20155;-78
2022/03/23 12:38:00;;;;;;;14.65;9.52;;;;;;;9.42;38.40;101452.50;10253197;29;20054;-77
2022/03/23 12:43:00;;;;;;;20.23;11.32;;;;;;;8.86;38.58;101345.13;10259709;28;20089;-79
2022/03/23 12:58:56;;;;;;;25.85;11.88;;;;;;;8.28;38.31;101233.56;10283368;28;20065;-74
2022/03/23 13:03:57;;;;;;;22.02;10.07;;;;;;;9.29;37.92;101417.44;10253208;28;20141;-73
2022/03/23 13:08:58;;;;;;;18.77;10.07;;;;;;;8.14;38.68;101210.09;10293286;28;20062;-75
2022/03/23 13:14:01;;;;;;;28.70;13.65;;;;;;;8.36;38.93;101254.09;10287813;28;20077;-73
2022/03/23 13:19:03;;;;;;;24.45;12.95;;;;;;;9.20;38.94;101389.91;10252134;28;20458;-73
2022/03/23 13:24:07;;;;;;;19.90;9.13;;;;;;;9.02;38.19;101365.81;10272675;28;20475;-74
2022/03/23 13:29:11;;;;;;;22.05;10.23;;;;;;;9.25;38.51;101378.91;10266741;28;20135;-74
2022/03/23 13:34:13;;;;;;;;;;;;;;;9.32;37.42;101377.38;10267694;28;20035;-74
2022/03/23 13:39:14;;;;;;;19.55;9.95;;;;;;;9.03;37.29;101370.16;10267283;28;19925;-74
2022/03/23 13:44:16;;;;;;;20.83;8.10;;;;;;;8.82;37.71;101334.91;10266061;28;20517;-74
2022/03/23 13:49:18;;;;;;;17.40;8.00;;;;;;;8.94;37.58;101373.59;10266273;28;20086;-74
2022/03/23 13:54:20;;;;;;;15.93;6.88;;;;;;;8.80;36.71;101361.56;10277581;28;20131;-75
2022/03/23 13:59:22;;;;;;;25.05;8.27;;;;;;;8.62;36.74;101366.59;10267913;28;20038;-75
2022/03/23 14:04:23;;;;;;;12.80;6.80;;;;;;;8.49;36.85;101339.47;10252649;28;20126;-74
2022/03/23 14:09:27;;;;;;;13.60;5.53;;;;;;;8.30;36.08;101328.72;10250754;29;20126;-74
2022/03/23 14:14:49;;;;;;;15.50;4.63;;;;;;;8.34;36.58;101346.03;10251333;29;20051;-74
2022/03/23 14:19:56;;;;;;;11.23;4.63;;;;;;;7.43;36.29;101226.56;10258951;28;20134;-74
2022/03/23 14:24:58;;;;;;;17.02;5.20;;;;;;;7.17;36.49;101196.97;10251528;29;20054;-73
2022/03/23 14:35:17;;;;;;;12.55;4.45;;;;;;;7.61;35.71;101310.63;10257980;28;20054;-74
2022/03/23 14:40:34;;;;;;;12.13;4.38;;;;;;;6.68;35.21;101163.13;10294301;28;20050;-74
2022/03/23 14:45:43;;;;;;;24.90;6.07;;;;;;;7.06;35.29;101255.16;10297172;28;20141;-74
2022/03/23 14:50:48;;;;;;;10.00;3.40;;;;;;;7.26;35.54;101320.44;10288076;28;20042;-74
2022/03/23 14:55:50;;;;;;;17.42;4.97;;;;;;;7.09;36.13;101313.03;10267494;28;20146;-74
2022/03/23 15:00:57;;;;;;;12.20;4.70;;;;;;;6.10;36.35;101193.16;10275123;28;20128;-74
2022/03/23 15:16:39;;;;;;;20.20;5.60;;;;;;;5.12;37.87;101160.13;10294884;28;20039;-74
2022/03/23 15:21:41;;;;;;;20.55;4.50;;;;;;;5.91;38.01;101325.53;10295588;28;20129;-74
2022/03/23 15:26:42;;;;;;;11.63;3.95;;;;;;;5.38;38.40;101289.91;10295554;28;20065;-74
2022/03/23 15:31:43;;;;;;;12.95;4.85;;;;;;;5.12;38.51;101294.44;10294174;28;20085;-73
2022/03/23 15:36:44;;;;;;;26.80;5.15;;;;;;;5.25;38.98;101332.09;10293925;28;20059;-75
2022/03/23 15:41:45;;;;;;;14.40;4.13;;;;;;;5.10;39.37;101341.09;10294301;28;20125;-74
2022/03/23 15:46:49;;;;;;;12.95;3.78;;;;;;;4.87;39.52;101333.00;10294187;28;20062;-73
2022/03/23 15:51:52;;;;;;;13.40;3.53;;;;;;;4.01;40.08;101223.16;10282542;28;20538;-73
2022/03/23 15:56:53;;;;;;;20.70;3.67;;;;;;;4.23;40.37;101290.09;10293070;28;20112;-73
2022/03/23 16:01:53;;;;;;;10.15;3.53;;;;;;;4.48;40.67;101353.22;10293161;28;20121;-75
2022/03/23 16:06:54;;;;;;;13.32;3.97;;;;;;;4.06;41.23;101305.19;10292309;28;20526;-75
2022/03/23 16:11:55;;;;;;;16.35;4.20;;;;;;;4.19;41.37;101364.84;10285579;28;20061;-77
2022/03/23 16:16:56;;;;;;;12.02;4.78;;;;;;;4.10;42.11;101369.78;10273684;28;20042;-75
2022/03/23 16:21:56;;;;;;;13.73;4.45;;;;;;;3.96;42.88;101369.00;10273062;28;20066;-75
2022/03/23 16:26:57;;;;;;;16.45;4.22;;;;;;;2.79;43.06;101207.56;10271794;28;20042;-75
2022/03/23 16:31:58;;;;;;;17.77;5.00;;;;;;;3.53;43.59;101363.88;10271504;28;20126;-76
2022/03/23 16:37:00;;;;;;;11.18;4.07;;;;;;;3.13;44.23;101319.13;10272811;28;20035;-76
2022/03/23 16:42:01;;;;;;;11.10;4.68;;;;;;;2.71;44.70;101266.59;10270187;28;20396;-76
2022/03/23 16:47:02;;;;;;;16.10;4.90;;;;;;;3.19;45.50;101371.25;10277358;28;20047;-76
2022/03/23 16:52:03;;;;;;;11.93;3.88;;;;;;;2.20;45.71;101239.13;10281579;28;20583;-76
2022/03/23 16:57:05;;;;;;;11.70;3.88;;;;;;;2.98;46.55;101376.88;10277397;28;20582;-75
2022/03/23 17:02:05;;;;;;;17.52;4.38;;;;;;;2.57;46.83;101341.81;10268934;28;20038;-76
2022/03/23 17:12:26;;;;;;;17.38;3.65;;;;;;;2.31;47.77;101351.25;10264243;28;20049;-76
2022/03/23 17:17:28;;;;;;;17.25;4.13;;;;;;;2.38;48.17;101368.28;10263195;28;20518;-76
2022/03/23 17:22:30;;;;;;;15.32;3.83;;;;;;;1.68;48.68;101290.22;10251560;28;20039;-76
2022/03/23 17:27:32;;;;;;;12.75;4.00;;;;;;;2.00;48.92;101361.69;10252216;29;20043;-76
2022/03/23 17:32:34;;;;;;;27.00;3.67;;;;;;;1.83;49.62;101361.84;10251019;29;20047;-77
2022/03/23 17:37:35;;;;;;;16.13;3.00;;;;;;;0.86;51.21;101230.22;10252077;29;20046;-77
2022/03/23 17:42:38;;;;;;;21.48;3.47;;;;;;;1.53;52.04;101359.16;10252132;29;20039;-77
2022/03/23 17:47:40;;;;;;;20.33;3.10;;;;;;;1.10;52.46;101330.91;10251874;29;20094;-76
2022/03/23 17:52:40;;;;;;;17.73;3.10;;;;;;;0.78;53.21;101277.75;10251669;29;20047;-77
2022/03/23 17:57:41;;;;;;;19.15;2.78;;;;;;;0.70;54.94;101263.38;10251296;29;20419;-76
2022/03/23 18:02:42;;;;;;;15.73;3.22;;;;;;;0.86;55.45;101317.38;10253481;28;20380;-77
2022/03/23 18:07:43;;;;;;;16.25;2.53;;;;;;;-0.09;56.08;101196.03;10260252;29;20043;-77
2022/03/23 18:12:44;;;;;;;11.38;2.15;;;;;;;0.59;55.52;101338.00;10266304;28;20137;-76
2022/03/23 18:17:45;;;;;;;7.97;2.20;;;;;;;-0.27;56.26;101203.06;10296944;28;20047;-77
2022/03/23 18:22:46;;;;;;;13.00;2.55;;;;;;;-0.15;56.80;101251.19;10284854;28;20046;-77
2022/03/23 18:27:47;;;;;;;12.43;2.63;;;;;;;0.01;56.86;101307.00;10299070;28;20035;-77
2022/03/23 18:32:47;;;;;;;13.15;2.70;;;;;;;-0.09;57.48;101304.00;10297955;28;20097;-77
2022/03/23 18:37:50;;;;;;;9.80;2.15;;;;;;;-0.62;57.17;101216.09;10297688;28;20042;-78
2022/03/23 18:42:52;;;;;;;13.00;2.42;;;;;;;-0.02;58.30;101328.03;10295820;28;20089;-76
2022/03/23 18:47:55;;;;;;;5.45;1.88;;;;;;;-0.30;60.17;101291.97;10298671;28;20055;-76
2022/03/23 18:52:56;;;;;;;26.70;7.07;;;;;;;-0.30;59.07;101315.47;10297122;28;20499;-75
2022/03/23 18:57:57;;;;;;;17.98;5.15;;;;;;;-0.19;59.33;101315.81;10296997;28;20050;-76
2022/03/23 19:02:58;;;;;;;13.32;4.40;;;;;;;-0.39;58.93;101279.38;10288412;28;20043;-76
2022/03/23 19:07:59;;;;;;;18.83;3.38;;;;;;;-1.22;58.82;101156.38;10257231;28;20047;-76
2022/03/23 19:12:59;;;;;;;17.20;2.22;;;;;;;-0.71;58.76;101248.69;10257682;28;20755;-76
2022/03/23 19:18:01;;;;;;;21.92;2.80;;;;;;;-1.15;59.01;101175.19;10256594;28;20047;-76
2022/03/23 19:23:04;;;;;;;19.48;2.22;;;;;;;-0.64;59.91;101267.50;10256332;29;20046;-76
2022/03/23 19:28:05;;;;;;;13.52;2.33;;;;;;;-0.80;60.28;101249.16;10256182;29;20083;-76
2022/03/23 19:33:06;;;;;;;7.38;1.90;;;;;;;-0.64;60.36;101285.78;10259662;28;20521;-76
2022/03/23 19:38:06;;;;;;;14.38;2.38;;;;;;;-1.52;60.19;101148.22;10294740;28;20073;-76
2022/03/23 19:43:07;;;;;;;11.40;1.75;;;;;;;-1.12;60.43;101221.97;10296032;28;20043;-76
2022/03/23 19:48:08;;;;;;;10.98;1.98;;;;;;;-1.79;61.20;101123.47;10295316;28;20058;-77
2022/03/23 19:53:09;;;;;;;10.27;2.03;;;;;;;-1.45;61.43;101201.75;10295514;28;20129;-77
2022/03/23 19:58:10;;;;;;;8.45;1.70;;;;;;;-1.93;61.79;101111.03;10295269;28;20125;-77
2022/03/23 20:03:11;;;;;;;10.35;1.88;;;;;;;-1.75;62.05;101143.22;10293785;28;20042;-77
2022/03/23 20:08:12;;;;;;;5.93;1.77;;;;;;;-1.27;62.31;101233.09;10294775;28;20050;-77
2022/03/23 20:13:13;;;;;;;5.55;1.48;;;;;;;-1.57;63.06;101171.03;10277701;28;20438;-77
2022/03/23 20:18:13;;;;;;;10.50;1.20;;;;;;;-1.25;63.49;101237.34;10293940;28;20395;-77
2022/03/23 20:23:17;;;;;;;4.97;1.15;;;;;;;-1.40;63.50;101210.22;10294959;28;20042;-77
2022/03/23 20:28:18;;;;;;;5.63;1.30;;;;;;;-1.69;64.20;101159.41;10293605;28;20046;-77
2022/03/23 20:33:19;;;;;;;3.92;1.10;;;;;;;-2.44;64.88;101040.44;10293555;28;20581;-77
2022/03/23 20:38:20;;;;;;;7.82;1.17;;;;;;;-1.44;64.67;101198.22;10291617;28;20471;-77
2022/03/23 20:43:21;;;;;;;5.43;1.17;;;;;;;-2.86;64.47;100968.56;10293070;28;20074;-77
2022/03/23 20:48:22;;;;;;;7.10;1.40;;;;;;;-1.93;65.59;101118.84;10293710;28;20446;-77
2022/03/23 20:53:26;;;;;;;3.70;0.88;;;;;;;-1.50;66.09;101179.41;10293749;28;20467;-77
2022/03/23 20:58:27;;;;;;;2.92;0.95;;;;;;;-1.87;66.71;101118.59;10292926;28;20134;-76
2022/03/23 21:03:28;;;;;;;3.92;1.33;;;;;;;-1.71;66.36;101142.16;10293621;28;20134;-76
2022/03/23 21:08:36;;;;;;;4.60;1.20;;;;;;;-2.38;66.80;101039.31;10292696;28;20039;-77
2022/03/23 21:13:40;;;;;;;3.80;1.20;;;;;;;-1.68;67.67;101144.63;10292165;28;20058;-77
2022/03/23 21:18:41;;;;;;;5.55;1.15;;;;;;;-2.14;66.63;101064.22;10291788;28;20039;-77
2022/03/23 21:23:42;;;;;;;3.65;0.70;;;;;;;-1.96;67.87;101099.00;10292255;28;20137;-76
2022/03/23 21:28:43;;;;;;;6.13;1.30;;;;;;;-2.60;68.00;100990.00;10291375;28;20125;-76
2022/03/23 21:33:45;;;;;;;6.35;1.08;;;;;;;-1.76;68.83;101113.72;10292562;28;20137;-77
2022/03/23 21:38:48;;;;;;;5.85;1.45;;;;;;;-1.87;68.89;101106.41;10291183;28;20467;-77
2022/03/23 21:43:49;;;;;;;7.15;1.33;;;;;;;-2.53;68.80;100970.59;10292469;28;20035;-77
2022/03/23 21:48:50;;;;;;;5.32;1.52;;;;;;;-2.61;69.16;100968.31;10291058;28;20051;-76
2022/03/23 21:53:51;;;;;;;3.05;1.33;;;;;;;-2.12;69.25;101039.00;10292005;28;20038;-77
2022/03/23 21:58:52;;;;;;;5.75;1.85;;;;;;;-2.63;69.37;100944.16;10290872;28;20046;-77
2022/03/23 22:03:53;;;;;;;14.85;4.95;;;;;;;-1.84;70.62;101072.41;10291236;28;20070;-76
2022/03/23 22:08:54;;;;;;;5.80;1.90;;;;;;;-1.89;71.17;101061.34;10291448;28;20043;-76
2022/03/23 22:13:54;;;;;;;7.72;2.63;;;;;;;-2.34;72.11;100989.66;10281193;28;20415;-77
2022/03/23 22:18:56;;;;;;;7.60;2.50;;;;;;;-2.64;72.17;100937.25;10290916;28;20054;-77
2022/03/23 22:23:57;;;;;;;11.73;3.15;;;;;;;-2.04;73.40;101045.59;10291098;28;20117;-76
2022/03/23 22:28:58;;;;;;;8.52;3.50;;;;;;;-2.56;75.33;100934.31;10289245;28;20039;-77
2022/03/23 22:33:59;;;;;;;5.88;2.90;;;;;;;-1.70;78.64;101076.97;10290299;28;20174;-77
2022/03/23 22:39:00;;;;;;;5.78;2.22;;;;;;;-2.61;78.31;100908.50;10290763;28;20380;-77
2022/03/23 22:44:02;;;;;;;13.07;4.47;;;;;;;-2.50;78.51;100928.00;10290132;28;20517;-77
2022/03/23 22:49:02;;;;;;;5.30;1.75;;;;;;;-1.93;79.19;100999.06;10292241;28;20054;-77
2022/03/23 22:54:04;;;;;;;4.97;1.30;;;;;;;-1.79;79.25;101021.88;10297526;28;20047;-77
2022/03/23 22:59:04;;;;;;;5.53;1.30;;;;;;;-2.36;80.59;100917.81;10297023;28;20051;-77
2022/03/23 23:04:06;;;;;;;4.35;1.50;;;;;;;-2.55;79.29;100874.41;10295887;28;20113;-76
2022/03/23 23:09:07;;;;;;;6.40;1.40;;;;;;;-1.81;79.01;101000.25;10297672;28;20481;-77
2022/03/23 23:14:10;;;;;;;8.18;1.80;;;;;;;-1.96;81.00;100950.59;10297561;28;20129;-77
2022/03/23 23:19:11;;;;;;;3.20;1.23;;;;;;;-2.05;80.87;100938.00;10296808;28;20078;-76
2022/03/23 23:24:11;;;;;;;5.72;1.90;;;;;;;-1.80;81.87;100966.31;10294934;28;20519;-77
2022/03/23 23:29:34;;;;;;;3.03;0.82;;;;;;;-1.77;81.98;100962.72;10296470;28;20047;-77
2022/03/23 23:34:35;;;;;;;2.75;1.25;;;;;;;-2.48;83.43;100832.50;10290505;28;21371;-77
2022/03/23 23:39:36;;;;;;;2.97;1.10;;;;;;;-2.12;84.68;100876.75;10254436;29;20126;-77
2022/03/23 23:44:38;;;;;;;4.05;1.50;;;;;;;-2.04;84.38;100892.81;10256344;29;20153;-77
2022/03/23 23:49:39;;;;;;;5.45;1.50;;;;;;;-1.75;85.28;100920.06;10255727;29;20043;-77